createdAt,value
2022-10-07T00:00:47.545Z,8.80
2022-10-07T00:03:14.726Z,8.80
2022-10-07T00:05:41.767Z,8.90
2022-10-07T00:08:08.585Z,8.80
2022-10-07T00:10:43.019Z,8.80
2022-10-07T00:13:11.247Z,8.80
2022-10-07T00:15:38.314Z,8.70
2022-10-07T00:18:05.169Z,8.70
2022-10-07T00:20:36.821Z,8.70
2022-10-07T00:23:03.582Z,8.80
2022-10-07T00:25:30.370Z,8.70
2022-10-07T00:27:57.653Z,8.70
2022-10-07T00:30:24.436Z,8.60
2022-10-07T00:32:51.219Z,8.60
2022-10-07T00:35:17.971Z,8.50
2022-10-07T00:37:44.938Z,8.50
2022-10-07T00:40:13.422Z,8.60
2022-10-07T00:42:40.724Z,8.50
2022-10-07T00:45:14.692Z,8.50
2022-10-07T00:47:45.364Z,8.40
2022-10-07T00:50:27.772Z,8.40
2022-10-07T00:52:59.237Z,8.40
2022-10-07T00:55:29.756Z,8.40
2022-10-07T00:58:01.518Z,8.40
2022-10-07T01:00:28.517Z,8.40
2022-10-07T01:02:55.307Z,8.30
2022-10-07T01:05:22.087Z,8.40
2022-10-07T01:07:50.476Z,8.30
2022-10-07T01:10:20.295Z,8.40
2022-10-07T01:13:10.439Z,8.40
2022-10-07T01:15:51.184Z,8.30
2022-10-07T01:18:48.804Z,8.30
2022-10-07T01:21:27.780Z,8.20
2022-10-07T01:24:21.237Z,8.20
2022-10-07T01:27:00.582Z,8.20
2022-10-07T01:29:51.083Z,8.20
2022-10-07T01:32:28.655Z,8.20
2022-10-07T01:34:57.058Z,8.20
2022-10-07T01:37:27.119Z,8.20
2022-10-07T01:39:58.827Z,8.20
2022-10-07T01:42:25.981Z,8.10
2022-10-07T01:44:55.114Z,8.10
2022-10-07T01:47:21.906Z,8.10
2022-10-07T01:49:48.744Z,8.10
2022-10-07T01:52:27.113Z,8.10
2022-10-07T01:55:28.347Z,8.10
2022-10-07T01:58:03.631Z,8.10
2022-10-07T02:00:31.125Z,8.10
2022-10-07T02:03:23.816Z,8.10
2022-10-07T02:06:00.756Z,8.00
2022-10-07T02:08:30.201Z,8.00
2022-10-07T02:11:13.870Z,8.00
2022-10-07T02:13:51.832Z,7.90
2022-10-07T02:16:51.625Z,7.90
2022-10-07T02:19:41.346Z,7.90
2022-10-07T02:22:09.336Z,7.90
2022-10-07T02:24:39.278Z,7.80
2022-10-07T02:27:12.487Z,7.80
2022-10-07T02:29:41.349Z,7.80
2022-10-07T02:32:13.383Z,7.70
2022-10-07T02:34:43.583Z,7.70
2022-10-07T02:37:27.174Z,7.70
2022-10-07T02:39:55.785Z,7.80
2022-10-07T02:42:46.026Z,7.70
2022-10-07T02:45:42.886Z,7.70
2022-10-07T02:48:41.924Z,7.70
2022-10-07T02:51:17.383Z,7.70
2022-10-07T02:53:49.693Z,7.80
2022-10-07T02:56:18.895Z,7.70
2022-10-07T02:58:47.315Z,7.70
2022-10-07T03:01:20.513Z,7.70
2022-10-07T03:03:47.511Z,7.70
2022-10-07T03:06:17.910Z,7.70
2022-10-07T03:08:44.845Z,7.60
2022-10-07T03:11:11.699Z,7.60
2022-10-07T03:13:38.460Z,7.60
2022-10-07T03:16:05.560Z,7.60
2022-10-07T03:18:32.932Z,7.60
2022-10-07T03:21:00.127Z,7.70
2022-10-07T03:23:28.521Z,7.70
2022-10-07T03:25:56.829Z,7.70
2022-10-07T03:28:25.791Z,7.60
2022-10-07T03:30:52.615Z,7.50
2022-10-07T03:33:21.048Z,7.50
2022-10-07T03:35:47.772Z,7.40
2022-10-07T03:38:14.532Z,7.40
2022-10-07T03:40:44.371Z,7.40
2022-10-07T03:43:11.074Z,7.30
2022-10-07T03:45:44.123Z,7.30
2022-10-07T03:48:10.966Z,7.20
2022-10-07T03:50:37.736Z,7.20
2022-10-07T03:53:04.524Z,7.20
2022-10-07T03:55:31.271Z,7.20
2022-10-07T03:57:59.725Z,7.20
2022-10-07T04:00:27.395Z,7.20
2022-10-07T04:02:54.461Z,7.20
2022-10-07T04:05:21.925Z,7.20
2022-10-07T04:07:49.931Z,7.20
2022-10-07T04:10:18.940Z,7.30
2022-10-07T04:12:46.212Z,7.20
2022-10-07T04:15:12.947Z,7.50
2022-10-07T04:17:44.779Z,7.50
2022-10-07T04:20:13.900Z,7.50
2022-10-07T04:22:40.894Z,7.60
2022-10-07T04:25:08.811Z,7.70
2022-10-07T04:27:51.053Z,7.70
2022-10-07T04:30:18.563Z,7.70
2022-10-07T04:32:45.308Z,7.70
2022-10-07T04:35:12.167Z,7.60
2022-10-07T04:37:38.903Z,7.50
2022-10-07T04:40:05.974Z,7.50
2022-10-07T04:42:32.684Z,7.40
2022-10-07T04:44:59.478Z,7.50
2022-10-07T04:47:26.285Z,7.50
2022-10-07T04:49:53.043Z,7.60
2022-10-07T04:52:20.468Z,7.60
2022-10-07T04:54:47.392Z,7.60
2022-10-07T04:57:14.568Z,7.60
2022-10-07T04:59:43.010Z,7.50
2022-10-07T05:02:10.139Z,7.50
2022-10-07T05:04:36.969Z,7.30
2022-10-07T05:07:04.131Z,7.30
2022-10-07T05:09:31.011Z,7.40
2022-10-07T05:11:57.747Z,7.40
2022-10-07T05:14:24.478Z,7.40
2022-10-07T05:16:51.971Z,7.30
2022-10-07T05:19:18.697Z,7.20
2022-10-07T05:21:45.418Z,7.20
2022-10-07T05:24:12.143Z,7.20
2022-10-07T05:26:38.882Z,7.20
2022-10-07T05:29:05.699Z,7.20
2022-10-07T05:31:32.661Z,7.10
2022-10-07T05:33:59.893Z,7.10
2022-10-07T05:36:26.773Z,7.20
2022-10-07T05:38:54.747Z,7.20
2022-10-07T05:41:21.661Z,7.20
2022-10-07T05:43:48.385Z,7.30
2022-10-07T05:46:17.765Z,7.30
2022-10-07T05:48:48.680Z,7.30
2022-10-07T05:51:15.457Z,7.40
2022-10-07T05:53:42.404Z,7.50
2022-10-07T05:56:11.194Z,7.50
2022-10-07T05:58:38.027Z,7.60
2022-10-07T06:01:12.987Z,7.70
2022-10-07T06:03:40.934Z,7.70
2022-10-07T06:06:07.801Z,7.70
2022-10-07T06:08:35.975Z,7.80
2022-10-07T06:11:04.631Z,7.80
2022-10-07T06:13:31.577Z,7.80
2022-10-07T06:16:06.178Z,7.90
2022-10-07T06:18:35.613Z,7.90
2022-10-07T06:21:02.708Z,8.00
2022-10-07T06:23:30.303Z,8.10
2022-10-07T06:26:02.139Z,8.10
2022-10-07T06:28:47.089Z,8.20
2022-10-07T06:31:20.150Z,8.20
2022-10-07T06:33:46.934Z,8.30
2022-10-07T06:36:14.171Z,8.40
2022-10-07T06:38:48.329Z,8.40
2022-10-07T06:41:15.553Z,8.50
2022-10-07T06:43:42.789Z,8.60
2022-10-07T06:46:14.912Z,8.60
2022-10-07T06:48:42.713Z,8.70
2022-10-07T06:51:14.626Z,8.70
2022-10-07T06:53:42.161Z,8.90
2022-10-07T06:56:11.518Z,9.00
2022-10-07T06:58:38.243Z,9.00
2022-10-07T07:01:05.155Z,9.10
2022-10-07T07:03:32.738Z,9.20
2022-10-07T07:05:59.524Z,9.30
2022-10-07T07:08:27.840Z,9.30
2022-10-07T07:10:55.151Z,9.40
2022-10-07T07:13:22.018Z,9.40
2022-10-07T07:15:57.206Z,9.50
2022-10-07T07:18:24.452Z,9.60
2022-10-07T07:20:51.544Z,9.70
2022-10-07T07:23:18.293Z,9.80
2022-10-07T07:25:45.013Z,9.90
2022-10-07T07:28:15.035Z,10.10
2022-10-07T07:30:42.379Z,10.90
2022-10-07T07:33:09.589Z,13.90
2022-10-07T07:35:39.704Z,15.30
2022-10-07T07:38:06.441Z,16.60
2022-10-07T07:40:39.407Z,15.80
2022-10-07T07:43:06.848Z,16.70
2022-10-07T07:45:35.993Z,18.00
2022-10-07T07:48:03.139Z,16.50
2022-10-07T07:50:29.899Z,18.60
2022-10-07T07:52:57.471Z,18.70
2022-10-07T07:55:24.651Z,18.40
2022-10-07T07:57:51.383Z,19.50
2022-10-07T08:00:18.311Z,19.30
2022-10-07T08:02:45.069Z,18.60
2022-10-07T08:05:12.000Z,19.30
2022-10-07T08:07:38.789Z,18.30
2022-10-07T08:10:06.011Z,18.80
2022-10-07T08:12:33.056Z,19.10
2022-10-07T08:14:59.828Z,18.20
2022-10-07T08:17:26.640Z,18.90
2022-10-07T08:19:53.379Z,19.30
2022-10-07T08:22:20.127Z,19.20
2022-10-07T08:24:47.946Z,19.30
2022-10-07T08:27:14.793Z,19.40
2022-10-07T08:29:41.519Z,20.40
2022-10-07T08:32:08.268Z,19.90
2022-10-07T08:34:35.049Z,19.10
2022-10-07T08:37:01.816Z,20.60
2022-10-07T08:39:28.553Z,20.70
2022-10-07T08:42:30.537Z,20.90
2022-10-07T08:44:57.432Z,20.50
2022-10-07T08:47:43.913Z,19.50
2022-10-07T08:50:26.219Z,21.00
2022-10-07T08:52:58.631Z,21.20
2022-10-07T08:55:41.706Z,21.20
2022-10-07T08:58:23.383Z,21.50
2022-10-07T09:01:20.277Z,21.00
2022-10-07T09:04:10.266Z,21.50
2022-10-07T09:06:45.528Z,21.10
2022-10-07T09:09:25.036Z,19.50
2022-10-07T09:11:54.490Z,19.80
2022-10-07T09:14:44.173Z,19.10
2022-10-07T09:17:35.412Z,19.30
2022-10-07T09:20:18.746Z,20.50
2022-10-07T09:22:49.829Z,21.00
2022-10-07T09:25:16.681Z,20.50
2022-10-07T09:27:43.667Z,20.90
2022-10-07T09:30:13.739Z,19.70
2022-10-07T09:32:46.139Z,19.70
2022-10-07T09:35:22.024Z,19.50
2022-10-07T09:37:56.999Z,19.30
2022-10-07T09:40:45.563Z,18.60
2022-10-07T09:43:12.685Z,18.90
2022-10-07T09:45:45.144Z,19.10
2022-10-07T09:48:20.485Z,19.10
2022-10-07T09:50:47.453Z,19.40
2022-10-07T09:53:24.431Z,19.10
2022-10-07T09:55:53.435Z,19.30
2022-10-07T09:58:31.044Z,19.50
2022-10-07T10:01:00.038Z,18.90
2022-10-07T10:03:31.748Z,18.60
2022-10-07T10:06:04.053Z,18.70
2022-10-07T10:08:44.629Z,19.30
2022-10-07T10:11:20.220Z,19.30
2022-10-07T10:13:49.466Z,20.40
2022-10-07T10:16:25.529Z,19.30
2022-10-07T10:18:57.956Z,19.90
2022-10-07T10:21:33.472Z,20.10
2022-10-07T10:24:03.261Z,19.60
2022-10-07T10:26:47.842Z,19.20
2022-10-07T10:29:36.374Z,19.70
2022-10-07T10:32:33.867Z,20.20
2022-10-07T10:35:19.086Z,20.50
2022-10-07T10:37:51.778Z,20.00
2022-10-07T10:40:40.163Z,20.70
2022-10-07T10:43:24.981Z,20.50
2022-10-07T10:46:11.002Z,20.40
2022-10-07T10:48:44.651Z,20.50
2022-10-07T10:51:20.281Z,19.90
2022-10-07T10:54:27.144Z,20.30
2022-10-07T10:57:30.778Z,20.30
2022-10-07T11:00:11.805Z,20.90
2022-10-07T11:02:52.503Z,20.30
2022-10-07T11:05:23.949Z,21.10
2022-10-07T11:08:14.264Z,20.80
2022-10-07T11:10:46.870Z,20.20
2022-10-07T11:13:13.559Z,20.60
2022-10-07T11:15:46.749Z,20.20
2022-10-07T11:18:30.213Z,20.40
2022-10-07T11:20:59.413Z,20.60
2022-10-07T11:23:46.827Z,20.80
2022-10-07T11:26:17.976Z,20.80
2022-10-07T11:28:46.606Z,21.00
2022-10-07T11:31:36.758Z,20.20
2022-10-07T11:34:26.144Z,20.40
2022-10-07T11:36:58.036Z,21.30
2022-10-07T11:39:24.870Z,21.00
2022-10-07T11:42:16.267Z,20.30
2022-10-07T11:45:06.689Z,21.20
2022-10-07T11:47:40.384Z,21.40
2022-10-07T11:50:17.049Z,22.10
2022-10-07T11:52:47.403Z,22.10
2022-10-07T11:55:27.183Z,22.70
2022-10-07T11:57:57.492Z,22.40
2022-10-07T12:00:34.381Z,22.50
2022-10-07T12:03:19.548Z,21.60
2022-10-07T12:05:49.536Z,21.70
2022-10-07T12:08:28.106Z,21.30
2022-10-07T12:11:14.761Z,21.00
2022-10-07T12:13:46.961Z,21.40
2022-10-07T12:16:28.999Z,21.20
2022-10-07T12:19:05.121Z,21.10
2022-10-07T12:21:57.647Z,22.00
2022-10-07T12:24:24.462Z,21.40
2022-10-07T12:27:29.480Z,21.20
2022-10-07T12:29:58.178Z,21.80
2022-10-07T12:32:53.913Z,21.30
2022-10-07T12:35:29.759Z,21.10
2022-10-07T12:38:19.040Z,20.30
2022-10-07T12:43:38.028Z,20.50
2022-10-07T12:46:14.884Z,20.00
2022-10-07T12:48:48.210Z,19.90
2022-10-07T12:51:22.803Z,19.50
2022-10-07T12:53:51.837Z,19.40
2022-10-07T12:56:23.543Z,19.60
2022-10-07T12:58:59.729Z,19.50
2022-10-07T13:01:35.156Z,19.70
2022-10-07T13:04:01.960Z,19.40
2022-10-07T13:07:09.743Z,19.60
2022-10-07T13:09:58.289Z,19.10
2022-10-07T13:13:02.810Z,19.10
2022-10-07T13:18:46.403Z,18.30
2022-10-07T13:21:25.710Z,18.30
2022-10-07T13:23:55.209Z,18.20
2022-10-07T13:26:23.903Z,18.40
2022-10-07T13:28:51.976Z,18.20
2022-10-07T13:31:25.377Z,18.20
2022-10-07T13:33:53.613Z,18.30
2022-10-07T13:36:26.453Z,18.10
2022-10-07T13:39:10.247Z,18.30
2022-10-07T13:41:39.168Z,18.50
2022-10-07T13:47:00.873Z,18.50
2022-10-07T13:49:41.598Z,18.10
2022-10-07T13:52:20.549Z,18.10
2022-10-07T13:54:51.914Z,18.10
2022-10-07T13:57:22.418Z,18.30
2022-10-07T13:59:50.165Z,17.90
2022-10-07T14:02:17.466Z,18.00
2022-10-07T14:05:02.381Z,18.10
2022-10-07T14:07:29.351Z,18.00
2022-10-07T14:09:59.056Z,17.80
2022-10-07T14:12:28.105Z,17.70
2022-10-07T14:15:02.065Z,17.80
2022-10-07T14:17:40.028Z,17.70
2022-10-07T14:20:36.938Z,17.60
2022-10-07T14:23:18.763Z,17.40
2022-10-07T14:25:48.511Z,17.20
2022-10-07T14:31:17.116Z,17.00
2022-10-07T14:33:54.477Z,16.90
2022-10-07T14:36:22.443Z,16.70
2022-10-07T14:38:51.237Z,16.70
2022-10-07T14:41:20.625Z,16.60
2022-10-07T14:43:49.289Z,16.60
2022-10-07T14:49:09.115Z,16.40
2022-10-07T14:51:44.179Z,16.30
2022-10-07T14:54:12.290Z,16.20
2022-10-07T14:56:39.022Z,16.20
2022-10-07T14:59:13.753Z,16.20
2022-10-07T15:01:40.427Z,16.20
2022-10-07T15:04:07.189Z,16.00
2022-10-07T15:06:34.946Z,15.90
2022-10-07T15:09:01.785Z,16.00
2022-10-07T15:11:28.536Z,15.80
2022-10-07T15:13:55.238Z,15.90
2022-10-07T15:16:25.975Z,15.80
2022-10-07T15:18:53.695Z,15.90
2022-10-07T15:21:22.103Z,15.70
2022-10-07T15:23:53.684Z,15.70
2022-10-07T15:29:08.740Z,15.80
2022-10-07T15:31:35.498Z,15.70
2022-10-07T15:34:02.233Z,15.80
2022-10-07T15:36:29.701Z,15.70
2022-10-07T15:38:58.403Z,15.60
2022-10-07T15:41:39.608Z,15.50
2022-10-07T15:44:20.864Z,15.50
2022-10-07T15:46:49.093Z,15.30
2022-10-07T15:49:16.084Z,15.40
2022-10-07T15:51:42.941Z,15.20
2022-10-07T15:54:10.812Z,15.10
2022-10-07T15:56:37.568Z,15.00
2022-10-07T15:59:04.829Z,14.80
2022-10-07T16:01:31.962Z,14.90
2022-10-07T16:04:00.680Z,14.70
2022-10-07T16:06:33.126Z,14.70
2022-10-07T16:09:01.130Z,14.60
2022-10-07T16:11:29.097Z,14.60
2022-10-07T16:16:43.047Z,14.40
2022-10-07T16:21:56.914Z,14.20
2022-10-07T16:24:23.856Z,14.10
2022-10-07T16:29:37.656Z,13.90
2022-10-07T16:34:52.189Z,13.60
2022-10-07T16:40:06.360Z,13.30
2022-10-07T16:45:19.855Z,13.10
2022-10-07T16:47:47.060Z,13.00
2022-10-07T16:50:14.214Z,12.90
2022-10-07T16:52:40.919Z,12.80
2022-10-07T16:55:08.168Z,12.80
2022-10-07T16:57:35.101Z,12.70
2022-10-07T17:00:02.153Z,12.60
2022-10-07T17:02:28.925Z,12.50
2022-10-07T17:04:55.632Z,12.50
2022-10-07T17:07:22.413Z,12.30
2022-10-07T17:09:49.153Z,12.20
2022-10-07T17:12:15.854Z,12.20
2022-10-07T17:14:42.597Z,12.30
2022-10-07T17:17:09.552Z,12.20
2022-10-07T17:22:22.917Z,12.20
2022-10-07T17:27:36.304Z,12.10
2022-10-07T17:32:51.056Z,12.00
2022-10-07T17:37:44.806Z,11.90
2022-10-07T17:40:11.701Z,11.80
2022-10-07T17:42:38.493Z,11.80
2022-10-07T17:45:05.810Z,11.80
2022-10-07T17:47:32.594Z,11.70
2022-10-07T17:49:59.482Z,11.60
2022-10-07T17:52:27.565Z,11.50
2022-10-07T17:54:54.441Z,11.60
2022-10-07T17:57:21.154Z,11.50
2022-10-07T17:59:47.894Z,11.50
2022-10-07T18:02:14.643Z,11.40
2022-10-07T18:04:41.393Z,11.30
2022-10-07T18:07:08.148Z,11.30
2022-10-07T18:09:34.902Z,11.40
2022-10-07T18:12:01.870Z,11.40
2022-10-07T18:14:28.876Z,11.50
2022-10-07T18:16:55.668Z,11.40
2022-10-07T18:19:24.023Z,11.50
2022-10-07T18:21:50.920Z,11.70
2022-10-07T18:24:17.711Z,11.70
2022-10-07T18:26:44.732Z,11.70
2022-10-07T18:29:11.628Z,11.80
2022-10-07T18:31:39.242Z,11.80
2022-10-07T18:34:06.025Z,11.90
2022-10-07T18:39:20.689Z,12.00
2022-10-07T18:44:34.078Z,12.10
2022-10-07T18:49:47.446Z,12.20
2022-10-07T18:52:14.187Z,12.20
2022-10-07T18:54:40.906Z,12.30
2022-10-07T18:57:07.617Z,12.30
2022-10-07T18:59:34.364Z,12.30
2022-10-07T19:04:47.693Z,12.40
2022-10-07T19:10:01.084Z,12.40
2022-10-07T19:15:14.467Z,12.40
2022-10-07T19:20:27.847Z,12.40
2022-10-07T19:22:54.563Z,12.30
2022-10-07T19:25:21.285Z,12.30
2022-10-07T19:27:48.401Z,12.30
2022-10-07T19:30:15.450Z,12.10
2022-10-07T19:32:42.172Z,12.10
2022-10-07T19:35:08.996Z,12.10
2022-10-07T19:37:35.732Z,12.10
2022-10-07T19:40:02.464Z,12.10
2022-10-07T19:42:29.250Z,12.00
2022-10-07T19:44:55.967Z,12.10
2022-10-07T19:47:22.696Z,12.00
2022-10-07T19:49:49.403Z,12.00
2022-10-07T19:52:16.118Z,12.00
2022-10-07T19:57:29.464Z,11.90
2022-10-07T20:02:42.831Z,11.90
2022-10-07T20:05:09.556Z,11.80
2022-10-07T20:07:36.284Z,12.00
2022-10-07T20:10:03.217Z,11.90
2022-10-07T20:12:29.932Z,11.90
2022-10-07T20:14:56.648Z,11.80
2022-10-07T20:17:23.444Z,11.70
2022-10-07T20:19:50.139Z,11.70
2022-10-07T20:22:16.836Z,11.70
2022-10-07T20:24:43.558Z,11.60
2022-10-07T20:27:10.290Z,11.60
2022-10-07T20:29:37.044Z,11.60
2022-10-07T20:32:03.825Z,11.60
2022-10-07T20:34:30.541Z,11.50
2022-10-07T20:36:57.258Z,11.50
2022-10-07T20:39:24.180Z,11.40
2022-10-07T20:41:53.041Z,11.40
2022-10-07T20:44:19.839Z,11.30
2022-10-07T20:46:46.548Z,11.30
2022-10-07T20:49:13.726Z,11.30
2022-10-07T20:51:40.438Z,11.20
2022-10-07T20:54:07.262Z,11.20
2022-10-07T20:56:33.970Z,11.20
2022-10-07T20:59:00.674Z,11.10
2022-10-07T21:01:27.478Z,11.00
2022-10-07T21:03:54.269Z,11.10
2022-10-07T21:06:21.015Z,11.20
2022-10-07T21:08:47.717Z,11.10
2022-10-07T21:11:14.505Z,11.20
2022-10-07T21:16:30.417Z,11.20
2022-10-07T21:18:57.401Z,11.10
2022-10-07T21:21:24.915Z,11.10
2022-10-07T21:23:51.951Z,11.10
2022-10-07T21:29:06.769Z,11.00
2022-10-07T21:34:20.499Z,10.90
2022-10-07T21:36:51.628Z,10.80
2022-10-07T21:39:20.544Z,10.70
2022-10-07T21:41:47.369Z,10.70
2022-10-07T21:44:14.238Z,10.80
2022-10-07T21:46:41.580Z,10.70
2022-10-07T21:49:08.792Z,10.70
2022-10-07T21:51:35.923Z,10.70
2022-10-07T21:54:03.335Z,10.60
2022-10-07T21:56:31.720Z,10.60
2022-10-07T21:58:59.320Z,10.60
2022-10-07T22:01:26.301Z,10.60
2022-10-07T22:03:57.194Z,10.60
2022-10-07T22:06:25.133Z,10.50
2022-10-07T22:08:56.153Z,10.50
2022-10-07T22:11:23.074Z,10.40
2022-10-07T22:16:37.526Z,10.50
2022-10-07T22:21:52.269Z,10.40
2022-10-07T22:24:19.002Z,10.50
2022-10-07T22:26:47.942Z,10.50
2022-10-07T22:29:16.387Z,10.40
2022-10-07T22:31:43.301Z,10.40
2022-10-07T22:34:10.182Z,10.50
2022-10-07T22:36:36.966Z,10.40
2022-10-07T22:39:03.877Z,10.40
2022-10-07T22:41:30.603Z,10.40
2022-10-07T22:43:57.327Z,10.40
2022-10-07T22:46:27.369Z,10.40
2022-10-07T22:48:57.797Z,10.40
2022-10-07T22:51:26.066Z,10.40
2022-10-07T22:56:40.618Z,10.30
2022-10-07T22:59:07.349Z,10.30
2022-10-07T23:01:34.588Z,10.40
2022-10-07T23:04:02.412Z,10.40
2022-10-07T23:09:18.199Z,10.30
2022-10-07T23:11:44.916Z,10.30
2022-10-07T23:14:11.634Z,10.30
2022-10-07T23:16:38.372Z,10.20
2022-10-07T23:19:05.140Z,10.20
2022-10-07T23:21:34.355Z,10.10
2022-10-07T23:24:06.309Z,10.10
2022-10-07T23:29:21.111Z,10.00
2022-10-07T23:31:47.833Z,9.90
2022-10-07T23:34:14.648Z,9.90
2022-10-07T23:36:41.464Z,9.90
2022-10-07T23:39:08.298Z,9.90
2022-10-07T23:41:35.011Z,9.90
2022-10-07T23:44:02.511Z,9.90
2022-10-07T23:46:31.729Z,9.90
2022-10-07T23:48:58.915Z,9.90
2022-10-07T23:51:27.306Z,9.80
2022-10-07T23:56:43.274Z,9.80
